sensor_id;sensor_type;location;lat;lon;timestamp;pressure;altitude;pressure_sealevel;temperature;humidity
23118;BME280;11728;50.624;6.014;2023-03-20T00:01:02;98649.09;;;9.90;83.79
23118;BME280;11728;50.624;6.014;2023-03-20T00:06:02;98649.91;;;9.95;83.60
23118;BME280;11728;50.624;6.014;2023-03-20T00:11:03;98653.50;;;9.91;83.68
23118;BME280;11728;50.624;6.014;2023-03-20T00:16:04;98652.56;;;9.93;83.64
23118;BME280;11728;50.624;6.014;2023-03-20T00:21:05;98662.28;;;9.90;83.79
23118;BME280;11728;50.624;6.014;2023-03-20T00:26:11;98665.09;;;9.78;84.35
23118;BME280;11728;50.624;6.014;2023-03-20T00:31:26;98676.59;;;9.74;84.56
23118;BME280;11728;50.624;6.014;2023-03-20T00:36:27;98678.28;;;9.77;84.51
23118;BME280;11728;50.624;6.014;2023-03-20T00:41:57;98692.31;;;9.80;84.57
23118;BME280;11728;50.624;6.014;2023-03-20T00:47:03;98695.00;;;9.76;84.84
23118;BME280;11728;50.624;6.014;2023-03-20T00:52:04;98700.34;;;9.73;85.08
23118;BME280;11728;50.624;6.014;2023-03-20T00:57:07;98704.81;;;9.66;85.33
23118;BME280;11728;50.624;6.014;2023-03-20T01:02:10;98690.75;;;9.64;85.67
23118;BME280;11728;50.624;6.014;2023-03-20T01:07:13;98687.41;;;9.53;86.33
23118;BME280;11728;50.624;6.014;2023-03-20T01:12:14;98675.13;;;9.49;86.55
23118;BME280;11728;50.624;6.014;2023-03-20T01:17:19;98664.50;;;9.55;86.36
23118;BME280;11728;50.624;6.014;2023-03-20T01:22:20;98653.97;;;9.57;86.33
23118;BME280;11728;50.624;6.014;2023-03-20T01:27:20;98644.25;;;9.59;86.29
23118;BME280;11728;50.624;6.014;2023-03-20T01:32:21;98616.16;;;9.56;86.29
23118;BME280;11728;50.624;6.014;2023-03-20T01:37:25;98615.41;;;9.50;86.41
23118;BME280;11728;50.624;6.014;2023-03-20T01:42:25;98604.19;;;9.36;86.34
23118;BME280;11728;50.624;6.014;2023-03-20T01:47:27;98620.34;;;9.05;87.61
23118;BME280;11728;50.624;6.014;2023-03-20T01:52:28;98622.97;;;9.05;87.65
23118;BME280;11728;50.624;6.014;2023-03-20T01:57:28;98637.97;;;9.03;87.58
23118;BME280;11728;50.624;6.014;2023-03-20T02:02:30;98664.13;;;9.18;87.77
23118;BME280;11728;50.624;6.014;2023-03-20T02:07:32;98657.03;;;9.22;87.64
23118;BME280;11728;50.624;6.014;2023-03-20T02:12:35;98638.72;;;9.11;88.42
23118;BME280;11728;50.624;6.014;2023-03-20T02:17:35;98652.00;;;9.00;88.82
23118;BME280;11728;50.624;6.014;2023-03-20T02:22:58;98636.47;;;8.75;89.80
23118;BME280;11728;50.624;6.014;2023-03-20T02:38:59;98628.09;;;8.36;91.06
23118;BME280;11728;50.624;6.014;2023-03-20T02:49:44;98622.13;;;8.11;91.18
23118;BME280;11728;50.624;6.014;2023-03-20T03:05:34;98617.03;;;7.90;91.80
23118;BME280;11728;50.624;6.014;2023-03-20T03:10:40;98629.22;;;8.03;92.34
23118;BME280;11728;50.624;6.014;2023-03-20T03:15:49;98640.59;;;8.05;91.98
23118;BME280;11728;50.624;6.014;2023-03-20T03:20:55;98655.50;;;8.00;92.47
23118;BME280;11728;50.624;6.014;2023-03-20T03:25:58;98663.41;;;8.00;92.57
23118;BME280;11728;50.624;6.014;2023-03-20T03:31:00;98679.22;;;7.94;92.64
23118;BME280;11728;50.624;6.014;2023-03-20T03:41:30;98662.69;;;7.79;92.99
23118;BME280;11728;50.624;6.014;2023-03-20T03:46:43;98646.97;;;7.65;93.31
23118;BME280;11728;50.624;6.014;2023-03-20T03:51:49;98650.53;;;7.59;93.08
23118;BME280;11728;50.624;6.014;2023-03-20T03:56:53;98640.94;;;7.50;93.43
23118;BME280;11728;50.624;6.014;2023-03-20T04:01:56;98646.19;;;7.53;93.30
23118;BME280;11728;50.624;6.014;2023-03-20T04:06:59;98640.91;;;7.56;92.72
23118;BME280;11728;50.624;6.014;2023-03-20T04:11:59;98650.56;;;7.53;93.54
23118;BME280;11728;50.624;6.014;2023-03-20T04:17:00;98641.78;;;7.58;93.52
23118;BME280;11728;50.624;6.014;2023-03-20T04:22:00;98618.13;;;7.60;92.95
23118;BME280;11728;50.624;6.014;2023-03-20T04:27:00;98607.69;;;7.46;93.15
23118;BME280;11728;50.624;6.014;2023-03-20T04:32:01;98608.66;;;7.29;93.72
23118;BME280;11728;50.624;6.014;2023-03-20T04:37:02;98615.72;;;7.12;94.09
23118;BME280;11728;50.624;6.014;2023-03-20T04:42:04;98631.50;;;7.06;93.99
23118;BME280;11728;50.624;6.014;2023-03-20T04:47:04;98627.16;;;7.03;94.57
23118;BME280;11728;50.624;6.014;2023-03-20T04:52:05;98634.13;;;7.06;94.75
23118;BME280;11728;50.624;6.014;2023-03-20T04:57:06;98631.50;;;7.06;94.71
23118;BME280;11728;50.624;6.014;2023-03-20T05:02:06;98640.28;;;7.02;94.78
23118;BME280;11728;50.624;6.014;2023-03-20T05:07:07;98636.78;;;7.00;94.72
23118;BME280;11728;50.624;6.014;2023-03-20T05:12:08;98635.06;;;6.97;94.93
23118;BME280;11728;50.624;6.014;2023-03-20T05:17:08;98637.69;;;6.90;94.52
23118;BME280;11728;50.624;6.014;2023-03-20T05:22:09;98642.06;;;6.95;94.53
23118;BME280;11728;50.624;6.014;2023-03-20T05:27:10;98645.53;;;6.99;93.95
23118;BME280;11728;50.624;6.014;2023-03-20T05:32:10;98644.69;;;6.98;94.50
23118;BME280;11728;50.624;6.014;2023-03-20T05:37:11;98640.28;;;6.99;94.50
23118;BME280;11728;50.624;6.014;2023-03-20T05:42:12;98636.81;;;6.94;94.18
23118;BME280;11728;50.624;6.014;2023-03-20T05:47:15;98617.59;;;6.89;94.30
23118;BME280;11728;50.624;6.014;2023-03-20T05:52:16;98634.22;;;6.92;94.41
23118;BME280;11728;50.624;6.014;2023-03-20T05:57:16;98631.56;;;6.91;93.75
23118;BME280;11728;50.624;6.014;2023-03-20T06:02:17;98632.44;;;6.88;93.36
23118;BME280;11728;50.624;6.014;2023-03-20T06:07:17;98636.81;;;6.89;93.39
23118;BME280;11728;50.624;6.014;2023-03-20T06:12:17;98635.09;;;6.84;93.12
23118;BME280;11728;50.624;6.014;2023-03-20T06:17:18;98631.59;;;6.92;92.99
23118;BME280;11728;50.624;6.014;2023-03-20T06:22:18;98627.97;;;7.13;92.32
23118;BME280;11728;50.624;6.014;2023-03-20T06:27:18;98627.88;;;7.34;91.66
23118;BME280;11728;50.624;6.014;2023-03-20T06:32:19;98628.69;;;7.49;91.60
23118;BME280;11728;50.624;6.014;2023-03-20T06:37:19;98613.78;;;7.56;91.55
23118;BME280;11728;50.624;6.014;2023-03-20T06:42:21;98615.50;;;7.60;91.01
23118;BME280;11728;50.624;6.014;2023-03-20T06:47:21;98627.75;;;7.58;90.69
23118;BME280;11728;50.624;6.014;2023-03-20T06:52:22;98627.78;;;7.53;90.85
23118;BME280;11728;50.624;6.014;2023-03-20T06:57:23;98634.81;;;7.50;90.78
23118;BME280;11728;50.624;6.014;2023-03-20T07:02:24;98650.50;;;7.63;90.47
23118;BME280;11728;50.624;6.014;2023-03-20T07:07:25;98653.09;;;7.69;89.97
23118;BME280;11728;50.624;6.014;2023-03-20T07:12:25;98655.66;;;7.81;89.55
23118;BME280;11728;50.624;6.014;2023-03-20T07:17:27;98666.94;;;7.96;89.11
23118;BME280;11728;50.624;6.014;2023-03-20T07:22:29;98670.41;;;8.07;88.71
23118;BME280;11728;50.624;6.014;2023-03-20T07:27:30;98674.56;;;8.38;88.30
23118;BME280;11728;50.624;6.014;2023-03-20T07:32:31;98677.97;;;8.49;86.99
23118;BME280;11728;50.624;6.014;2023-03-20T07:37:31;98693.75;;;8.50;86.17
23118;BME280;11728;50.624;6.014;2023-03-20T07:42:32;98683.19;;;8.52;86.31
23118;BME280;11728;50.624;6.014;2023-03-20T07:47:32;98690.09;;;8.69;85.97
23118;BME280;11728;50.624;6.014;2023-03-20T07:52:33;98697.16;;;8.66;84.89
23118;BME280;11728;50.624;6.014;2023-03-20T07:57:33;98690.19;;;8.56;85.04
23118;BME280;11728;50.624;6.014;2023-03-20T08:02:33;98696.34;;;8.58;84.83
23118;BME280;11728;50.624;6.014;2023-03-20T08:07:34;98706.75;;;8.67;84.77
23118;BME280;11728;50.624;6.014;2023-03-20T08:12:34;98713.69;;;8.80;84.48
23118;BME280;11728;50.624;6.014;2023-03-20T08:17:35;98705.59;;;8.98;83.41
23118;BME280;11728;50.624;6.014;2023-03-20T08:22:35;98715.06;;;9.17;81.58
23118;BME280;11728;50.624;6.014;2023-03-20T08:27:36;98707.97;;;9.24;79.61
23118;BME280;11728;50.624;6.014;2023-03-20T08:32:37;98709.72;;;9.22;77.86
23118;BME280;11728;50.624;6.014;2023-03-20T08:37:40;98705.38;;;9.18;76.42
23118;BME280;11728;50.624;6.014;2023-03-20T08:42:40;98694.66;;;9.33;76.44
23118;BME280;11728;50.624;6.014;2023-03-20T08:47:41;98713.94;;;9.37;75.26
23118;BME280;11728;50.624;6.014;2023-03-20T08:52:41;98719.47;;;9.18;74.70
23118;BME280;11728;50.624;6.014;2023-03-20T08:57:43;98721.16;;;9.21;74.56
23118;BME280;11728;50.624;6.014;2023-03-20T09:02:43;98728.91;;;9.33;74.01
23118;BME280;11728;50.624;6.014;2023-03-20T09:07:44;98722.19;;;9.09;72.99
23118;BME280;11728;50.624;6.014;2023-03-20T09:12:44;98742.44;;;9.01;73.90
23118;BME280;11728;50.624;6.014;2023-03-20T09:17:45;98735.56;;;8.85;73.51
23118;BME280;11728;50.624;6.014;2023-03-20T09:22:45;98738.38;;;8.65;74.42
23118;BME280;11728;50.624;6.014;2023-03-20T09:27:45;98743.72;;;8.58;74.25
23118;BME280;11728;50.624;6.014;2023-03-20T09:32:46;98742.81;;;8.57;75.07
23118;BME280;11728;50.624;6.014;2023-03-20T09:37:46;98753.19;;;8.80;74.73
23118;BME280;11728;50.624;6.014;2023-03-20T09:53:32;98738.44;;;9.45;71.97
23118;BME280;11728;50.624;6.014;2023-03-20T09:59:01;98749.88;;;9.44;71.63
23118;BME280;11728;50.624;6.014;2023-03-20T10:04:06;98744.69;;;9.38;70.87
23118;BME280;11728;50.624;6.014;2023-03-20T10:09:15;98745.53;;;9.41;70.79
23118;BME280;11728;50.624;6.014;2023-03-20T10:20:12;98748.22;;;9.38;70.52
23118;BME280;11728;50.624;6.014;2023-03-20T10:25:34;98759.72;;;9.31;70.35
23118;BME280;11728;50.624;6.014;2023-03-20T10:30:48;98756.34;;;9.15;70.32
23118;BME280;11728;50.624;6.014;2023-03-20T10:36:15;98756.53;;;8.95;71.51
23118;BME280;11728;50.624;6.014;2023-03-20T10:41:27;98761.88;;;8.88;72.37
23118;BME280;11728;50.624;6.014;2023-03-20T10:46:34;98761.88;;;8.89;72.46
23118;BME280;11728;50.624;6.014;2023-03-20T10:51:45;98754.84;;;8.91;73.06
23118;BME280;11728;50.624;6.014;2023-03-20T10:56:48;98752.16;;;8.97;73.26
23118;BME280;11728;50.624;6.014;2023-03-20T11:01:51;98756.44;;;9.06;73.93
23118;BME280;11728;50.624;6.014;2023-03-20T11:07:45;98748.38;;;9.23;74.86
23118;BME280;11728;50.624;6.014;2023-03-20T11:12:24;98744.72;;;9.36;75.28
23118;BME280;11728;50.624;6.014;2023-03-20T11:17:27;98742.03;;;9.41;75.68
23118;BME280;11728;50.624;6.014;2023-03-20T11:22:28;98730.75;;;9.25;76.35
23118;BME280;11728;50.624;6.014;2023-03-20T11:27:31;98734.13;;;9.38;76.89
23118;BME280;11728;50.624;6.014;2023-03-20T11:32:34;98724.31;;;9.53;77.35
23118;BME280;11728;50.624;6.014;2023-03-20T11:37:43;98706.28;;;9.88;77.57
23118;BME280;11728;50.624;6.014;2023-03-20T11:48:01;98685.84;;;10.03;76.65
23118;BME280;11728;50.624;6.014;2023-03-20T11:53:19;98676.22;;;10.01;75.87
23118;BME280;11728;50.624;6.014;2023-03-20T11:58:21;98667.56;;;9.90;75.49
23118;BME280;11728;50.624;6.014;2023-03-20T12:08:55;98653.59;;;10.42;74.79
23118;BME280;11728;50.624;6.014;2023-03-20T12:13:58;98638.84;;;10.79;72.98
23118;BME280;11728;50.624;6.014;2023-03-20T12:19:05;98621.06;;;11.32;71.31
23118;BME280;11728;50.624;6.014;2023-03-20T12:24:26;98617.28;;;11.45;69.03
23118;BME280;11728;50.624;6.014;2023-03-20T12:29:45;98616.97;;;11.60;68.02
23118;BME280;11728;50.624;6.014;2023-03-20T12:34:56;98605.38;;;12.05;67.17
23118;BME280;11728;50.624;6.014;2023-03-20T12:39:59;98592.13;;;12.39;65.20
23118;BME280;11728;50.624;6.014;2023-03-20T12:50:48;98593.19;;;11.96;63.01
23118;BME280;11728;50.624;6.014;2023-03-20T13:01:29;98592.63;;;12.20;62.21
23118;BME280;11728;50.624;6.014;2023-03-20T13:06:54;98572.66;;;12.06;62.36
23118;BME280;11728;50.624;6.014;2023-03-20T13:38:59;98592.69;;;11.40;63.51
23118;BME280;11728;50.624;6.014;2023-03-20T13:44:04;98598.69;;;11.48;63.70
23118;BME280;11728;50.624;6.014;2023-03-20T13:49:13;98587.69;;;11.67;63.10
23118;BME280;11728;50.624;6.014;2023-03-20T13:54:43;98591.19;;;11.69;62.99
23118;BME280;11728;50.624;6.014;2023-03-20T13:59:52;98581.59;;;11.64;63.03
23118;BME280;11728;50.624;6.014;2023-03-20T14:05:10;98579.50;;;11.39;63.03
23118;BME280;11728;50.624;6.014;2023-03-20T14:15:21;98584.16;;;11.26;63.92
23118;BME280;11728;50.624;6.014;2023-03-20T14:20:30;98575.84;;;11.03;63.66
23118;BME280;11728;50.624;6.014;2023-03-20T14:25:38;98569.88;;;10.94;63.14
23118;BME280;11728;50.624;6.014;2023-03-20T14:30:43;98563.50;;;11.02;63.68
23118;BME280;11728;50.624;6.014;2023-03-20T14:35:50;98560.78;;;11.08;62.94
23118;BME280;11728;50.624;6.014;2023-03-20T14:41:04;98570.13;;;11.24;62.88
23118;BME280;11728;50.624;6.014;2023-03-20T14:46:25;98556.31;;;11.52;62.82
23118;BME280;11728;50.624;6.014;2023-03-20T14:51:35;98553.16;;;11.75;62.04
23118;BME280;11728;50.624;6.014;2023-03-20T14:56:39;98542.47;;;11.79;60.57
23118;BME280;11728;50.624;6.014;2023-03-20T15:07:05;98530.25;;;12.09;60.33
23118;BME280;11728;50.624;6.014;2023-03-20T15:12:13;98521.41;;;12.10;59.13
23118;BME280;11728;50.624;6.014;2023-03-20T15:17:33;98520.94;;;11.93;59.42
23118;BME280;11728;50.624;6.014;2023-03-20T15:22:46;98520.25;;;11.85;59.47
23118;BME280;11728;50.624;6.014;2023-03-20T15:27:48;98508.66;;;11.90;59.58
23118;BME280;11728;50.624;6.014;2023-03-20T15:32:52;98504.91;;;11.99;59.88
23118;BME280;11728;50.624;6.014;2023-03-20T15:37:57;98502.88;;;12.10;59.02
23118;BME280;11728;50.624;6.014;2023-03-20T15:43:11;98504.25;;;12.24;58.91
23118;BME280;11728;50.624;6.014;2023-03-20T15:48:15;98498.16;;;12.21;57.98
23118;BME280;11728;50.624;6.014;2023-03-20T15:53:33;98497.59;;;12.10;57.81
23118;BME280;11728;50.624;6.014;2023-03-20T15:58:35;98499.63;;;11.99;57.71
23118;BME280;11728;50.624;6.014;2023-03-20T16:03:37;98510.34;;;11.93;57.50
23118;BME280;11728;50.624;6.014;2023-03-20T16:08:40;98506.97;;;11.88;57.93
23118;BME280;11728;50.624;6.014;2023-03-20T16:13:43;98499.13;;;11.83;57.78
23118;BME280;11728;50.624;6.014;2023-03-20T16:18:47;98501.47;;;11.97;58.88
23118;BME280;11728;50.624;6.014;2023-03-20T16:23:51;98480.22;;;11.98;58.84
23118;BME280;11728;50.624;6.014;2023-03-20T16:28:58;98490.44;;;11.78;59.02
23118;BME280;11728;50.624;6.014;2023-03-20T16:34:00;98495.91;;;11.71;59.58
23118;BME280;11728;50.624;6.014;2023-03-20T16:39:19;98499.66;;;11.62;59.41
23118;BME280;11728;50.624;6.014;2023-03-20T16:44:21;98495.38;;;11.57;59.94
23118;BME280;11728;50.624;6.014;2023-03-20T16:54:35;98494.50;;;11.56;60.06
23118;BME280;11728;50.624;6.014;2023-03-20T16:59:38;98496.06;;;11.65;59.92
23118;BME280;11728;50.624;6.014;2023-03-20T17:04:39;98501.34;;;11.65;59.93
23118;BME280;11728;50.624;6.014;2023-03-20T17:10:11;98507.84;;;11.52;60.28
23118;BME280;11728;50.624;6.014;2023-03-20T17:15:22;98508.91;;;11.42;60.79
23118;BME280;11728;50.624;6.014;2023-03-20T17:20:25;98505.53;;;11.36;61.13
23118;BME280;11728;50.624;6.014;2023-03-20T17:25:27;98512.78;;;11.28;61.23
23118;BME280;11728;50.624;6.014;2023-03-20T17:30:27;98505.84;;;11.22;62.13
23118;BME280;11728;50.624;6.014;2023-03-20T17:35:28;98510.47;;;11.11;62.82
23118;BME280;11728;50.624;6.014;2023-03-20T17:40:28;98512.50;;;11.00;63.74
23118;BME280;11728;50.624;6.014;2023-03-20T17:45:29;98517.88;;;10.96;64.70
23118;BME280;11728;50.624;6.014;2023-03-20T17:50:29;98521.50;;;10.90;65.67
23118;BME280;11728;50.624;6.014;2023-03-20T17:55:29;98518.78;;;10.95;65.89
23118;BME280;11728;50.624;6.014;2023-03-20T18:00:30;98514.34;;;10.95;65.92
23118;BME280;11728;50.624;6.014;2023-03-20T18:05:30;98512.63;;;10.94;65.96
23118;BME280;11728;50.624;6.014;2023-03-20T18:10:33;98509.06;;;10.95;66.11
23118;BME280;11728;50.624;6.014;2023-03-20T18:15:35;98514.34;;;10.95;65.99
23118;BME280;11728;50.624;6.014;2023-03-20T18:20:38;98514.50;;;10.88;66.67
23118;BME280;11728;50.624;6.014;2023-03-20T18:25:40;98512.81;;;10.85;66.60
23118;BME280;11728;50.624;6.014;2023-03-20T18:30:41;98518.06;;;10.87;66.70
23118;BME280;11728;50.624;6.014;2023-03-20T18:35:41;98523.28;;;10.90;66.43
23118;BME280;11728;50.624;6.014;2023-03-20T18:40:42;98521.56;;;10.87;66.55
23118;BME280;11728;50.624;6.014;2023-03-20T18:45:46;98518.09;;;10.85;66.43
23118;BME280;11728;50.624;6.014;2023-03-20T18:50:46;98516.34;;;10.84;66.70
23118;BME280;11728;50.624;6.014;2023-03-20T18:55:49;98514.59;;;10.83;66.97
23118;BME280;11728;50.624;6.014;2023-03-20T19:00:51;98511.13;;;10.81;66.75
23118;BME280;11728;50.624;6.014;2023-03-20T19:05:55;98517.34;;;10.79;66.85
23118;BME280;11728;50.624;6.014;2023-03-20T19:10:56;98528.84;;;10.76;66.63
23118;BME280;11728;50.624;6.014;2023-03-20T19:15:57;98513.97;;;10.71;66.72
23118;BME280;11728;50.624;6.014;2023-03-20T19:20:57;98515.75;;;10.71;66.72
23118;BME280;11728;50.624;6.014;2023-03-20T19:25:57;98510.47;;;10.71;66.78
23118;BME280;11728;50.624;6.014;2023-03-20T19:30:58;98509.66;;;10.66;66.92
23118;BME280;11728;50.624;6.014;2023-03-20T19:36:00;98516.81;;;10.61;67.21
23118;BME280;11728;50.624;6.014;2023-03-20T19:41:01;98508.88;;;10.62;67.28
23118;BME280;11728;50.624;6.014;2023-03-20T19:46:02;98509.66;;;10.66;67.35
23118;BME280;11728;50.624;6.014;2023-03-20T19:51:03;98502.69;;;10.65;67.45
23118;BME280;11728;50.624;6.014;2023-03-20T19:56:04;98502.72;;;10.62;67.49
23118;BME280;11728;50.624;6.014;2023-03-20T20:01:05;98509.66;;;10.66;67.67
23118;BME280;11728;50.624;6.014;2023-03-20T20:06:06;98508.00;;;10.62;67.58
23118;BME280;11728;50.624;6.014;2023-03-20T20:11:07;98500.97;;;10.61;67.79
23118;BME280;11728;50.624;6.014;2023-03-20T20:16:11;98496.69;;;10.55;68.09
23118;BME280;11728;50.624;6.014;2023-03-20T20:21:11;98498.44;;;10.56;68.13
23118;BME280;11728;50.624;6.014;2023-03-20T20:26:11;98494.94;;;10.56;68.12
23118;BME280;11728;50.624;6.014;2023-03-20T20:31:12;98501.09;;;10.55;68.25
23118;BME280;11728;50.624;6.014;2023-03-20T20:36:12;98500.16;;;10.57;68.38
23118;BME280;11728;50.624;6.014;2023-03-20T20:41:15;98496.69;;;10.55;68.43
23118;BME280;11728;50.624;6.014;2023-03-20T20:46:16;98496.72;;;10.54;68.64
23118;BME280;11728;50.624;6.014;2023-03-20T20:51:16;98495.00;;;10.51;68.91
23118;BME280;11728;50.624;6.014;2023-03-20T20:56:17;98496.75;;;10.52;68.99
23118;BME280;11728;50.624;6.014;2023-03-20T21:01:18;98491.59;;;10.46;69.48
23118;BME280;11728;50.624;6.014;2023-03-20T21:06:18;98487.22;;;10.44;69.51
23118;BME280;11728;50.624;6.014;2023-03-20T21:11:19;98486.50;;;10.37;69.88
23118;BME280;11728;50.624;6.014;2023-03-20T21:16:20;98489.22;;;10.33;70.15
23118;BME280;11728;50.624;6.014;2023-03-20T21:21:20;98486.53;;;10.36;70.53
23118;BME280;11728;50.624;6.014;2023-03-20T21:26:20;98484.69;;;10.39;70.66
23118;BME280;11728;50.624;6.014;2023-03-20T21:31:24;98495.25;;;10.39;70.87
23118;BME280;11728;50.624;6.014;2023-03-20T21:36:26;98485.56;;;10.40;71.33
23118;BME280;11728;50.624;6.014;2023-03-20T21:41:26;98479.44;;;10.38;71.68
23118;BME280;11728;50.624;6.014;2023-03-20T21:46:26;98485.56;;;10.40;72.24
23118;BME280;11728;50.624;6.014;2023-03-20T21:51:27;98486.41;;;10.42;72.45
23118;BME280;11728;50.624;6.014;2023-03-20T21:56:27;98480.28;;;10.40;72.84
23118;BME280;11728;50.624;6.014;2023-03-20T22:01:28;98484.59;;;10.44;73.30
23118;BME280;11728;50.624;6.014;2023-03-20T22:06:29;98480.22;;;10.43;73.33
23118;BME280;11728;50.624;6.014;2023-03-20T22:11:29;98483.69;;;10.45;73.44
23118;BME280;11728;50.624;6.014;2023-03-20T22:16:30;98473.22;;;10.42;73.91
23118;BME280;11728;50.624;6.014;2023-03-20T22:21:30;98478.66;;;10.33;74.32
23118;BME280;11728;50.624;6.014;2023-03-20T22:26:31;98477.03;;;10.26;74.75
23118;BME280;11728;50.624;6.014;2023-03-20T22:31:31;98480.53;;;10.26;74.83
23118;BME280;11728;50.624;6.014;2023-03-20T22:36:31;98476.13;;;10.27;75.06
23118;BME280;11728;50.624;6.014;2023-03-20T22:41:32;98478.78;;;10.27;75.35
23118;BME280;11728;50.624;6.014;2023-03-20T22:46:32;98481.25;;;10.34;75.41
23118;BME280;11728;50.624;6.014;2023-03-20T22:51:33;98475.97;;;10.36;75.71
23118;BME280;11728;50.624;6.014;2023-03-20T22:56:33;98469.69;;;10.41;75.77
23118;BME280;11728;50.624;6.014;2023-03-20T23:01:34;98465.16;;;10.48;75.50
23118;BME280;11728;50.624;6.014;2023-03-20T23:06:34;98464.28;;;10.49;75.85
23118;BME280;11728;50.624;6.014;2023-03-20T23:11:35;98457.16;;;10.52;75.93
23118;BME280;11728;50.624;6.014;2023-03-20T23:16:35;98456.19;;;10.56;75.85
23118;BME280;11728;50.624;6.014;2023-03-20T23:21:36;98466.69;;;10.59;75.94
23118;BME280;11728;50.624;6.014;2023-03-20T23:26:36;98455.25;;;10.59;76.08
23118;BME280;11728;50.624;6.014;2023-03-20T23:31:36;98458.72;;;10.61;76.18
23118;BME280;11728;50.624;6.014;2023-03-20T23:36:37;98463.13;;;10.62;76.03
23118;BME280;11728;50.624;6.014;2023-03-20T23:41:38;98451.66;;;10.63;76.00
23118;BME280;11728;50.624;6.014;2023-03-20T23:46:38;98456.97;;;10.60;76.21
23118;BME280;11728;50.624;6.014;2023-03-20T23:51:38;98448.13;;;10.64;76.21
23118;BME280;11728;50.624;6.014;2023-03-20T23:56:39;98441.91;;;10.66;76.11
